Time;durP1;ratioP1;P1;durP2;ratioP2;P2;SDS_P1;SDS_P2;PMS_P1;PMS_P2;Temp;Humidity;BMP_temperature;BMP_pressure;BME280_temperature;BME280_humidity;BME280_pressure;Samples;Min_cycle;Max_cycle;Signal;HPM_P1;HPM_P2
2021/05/02 00:01:04;;;;;;;35.28;20.50;;;;;;;2.32;100.00;101063.41;5045978;28;20052;-59
2021/05/02 00:03:31;;;;;;;38.97;20.40;;;;;;;2.30;100.00;101065.31;5051085;28;20072;-59
2021/05/02 00:05:59;;;;;;;39.00;19.52;;;;;;;2.38;100.00;101063.84;5046472;28;20049;-59
2021/05/02 00:08:27;;;;;;;31.90;18.67;;;;;;;2.61;100.00;101061.44;5039933;28;20341;-59
2021/05/02 00:10:54;;;;;;;35.17;19.00;;;;;;;2.60;100.00;101061.56;5045170;28;20037;-60
2021/05/02 00:13:21;;;;;;;35.38;20.75;;;;;;;2.72;100.00;101066.81;5044516;28;20075;-59
2021/05/02 00:15:48;;;;;;;37.45;19.50;;;;;;;2.80;100.00;101060.16;5045493;28;20087;-59
2021/05/02 00:18:15;;;;;;;34.90;18.30;;;;;;;3.04;100.00;101068.16;5043082;28;20053;-59
2021/05/02 00:20:43;;;;;;;34.38;18.73;;;;;;;3.26;100.00;101060.41;5047682;28;20398;-59
2021/05/02 00:23:10;;;;;;;32.20;19.02;;;;;;;3.32;100.00;101063.53;5047558;28;20049;-59
2021/05/02 00:25:37;;;;;;;36.45;19.38;;;;;;;2.96;100.00;101066.03;5044609;28;20045;-59
2021/05/02 00:28:08;;;;;;;33.50;17.77;;;;;;;2.98;100.00;101071.22;5042920;28;20336;-59
2021/05/02 00:30:35;;;;;;;34.80;18.15;;;;;;;3.03;100.00;101064.66;5043469;28;20049;-59
2021/05/02 00:33:03;;;;;;;33.83;19.05;;;;;;;3.32;100.00;101064.41;5049084;28;20444;-60
2021/05/02 00:35:30;;;;;;;31.33;17.95;;;;;;;3.62;100.00;101069.25;5045637;28;20037;-59
2021/05/02 00:37:57;;;;;;;30.80;18.25;;;;;;;3.71;100.00;101062.44;5040698;28;20345;-59
2021/05/02 00:40:31;;;;;;;34.13;18.48;;;;;;;3.89;100.00;101070.81;5046453;28;20053;-59
2021/05/02 00:43:04;;;;;;;32.78;18.80;;;;;;;3.98;100.00;101066.66;5045959;28;20052;-59
2021/05/02 00:45:36;;;;;;;33.38;18.88;;;;;;;4.07;100.00;101059.84;5049404;28;20041;-58
2021/05/02 00:48:05;;;;;;;32.58;17.23;;;;;;;4.11;100.00;101058.66;5040060;28;20332;-60
2021/05/02 00:50:35;;;;;;;28.95;16.75;;;;;;;3.95;100.00;101069.53;5044344;28;20041;-59
2021/05/02 00:53:16;;;;;;;26.00;16.90;;;;;;;3.83;100.00;101073.06;5045607;28;20333;-59
2021/05/02 00:55:47;;;;;;;28.50;17.10;;;;;;;3.44;100.00;101078.50;5046393;28;20064;-59
2021/05/02 00:58:26;;;;;;;33.35;18.60;;;;;;;3.38;100.00;101068.41;5042527;28;20044;-59
2021/05/02 01:00:54;;;;;;;30.48;17.70;;;;;;;3.17;100.00;101070.78;5043196;28;20450;-59
2021/05/02 01:03:24;;;;;;;33.20;18.38;;;;;;;3.20;100.00;101065.28;5040499;28;20053;-60
2021/05/02 01:05:53;;;;;;;33.45;19.25;;;;;;;3.39;100.00;101064.81;5047340;28;20041;-59
2021/05/02 01:08:21;;;;;;;29.88;17.90;;;;;;;3.59;100.00;101066.00;5044936;28;20098;-59
2021/05/02 01:10:50;;;;;;;28.13;17.48;;;;;;;3.06;100.00;101067.09;5047012;28;20037;-59
2021/05/02 01:13:20;;;;;;;35.10;18.67;;;;;;;2.75;100.00;101066.59;5045369;28;20091;-59
2021/05/02 01:15:49;;;;;;;41.03;21.40;;;;;;;2.86;100.00;101063.19;5041291;28;20053;-59
2021/05/02 01:18:20;;;;;;;36.53;21.10;;;;;;;2.43;100.00;101060.06;5041210;28;20072;-60
2021/05/02 01:20:47;;;;;;;32.67;19.27;;;;;;;2.67;100.00;101061.00;5041280;28;20336;-59
2021/05/02 01:23:23;;;;;;;34.72;19.35;;;;;;;2.92;100.00;101064.56;5042624;28;20049;-59
2021/05/02 01:25:52;;;;;;;35.97;19.35;;;;;;;3.12;100.00;101062.31;5043872;28;20049;-59
2021/05/02 01:28:19;;;;;;;37.28;20.13;;;;;;;3.05;100.00;101056.66;5045008;28;20037;-59
2021/05/02 01:30:47;;;;;;;36.85;20.38;;;;;;;3.12;100.00;101064.97;5047493;28;20063;-59
2021/05/02 01:33:14;;;;;;;32.30;19.42;;;;;;;3.26;100.00;101060.41;5040890;28;20044;-59
2021/05/02 01:35:41;;;;;;;36.92;18.90;;;;;;;3.12;100.00;101063.19;5043678;28;20080;-59
2021/05/02 01:38:08;;;;;;;36.22;20.70;;;;;;;3.02;100.00;101065.63;5043187;28;20041;-59
2021/05/02 01:40:36;;;;;;;37.65;20.73;;;;;;;2.58;100.00;101065.13;5038082;28;20065;-59
2021/05/02 01:43:03;;;;;;;38.80;21.30;;;;;;;2.43;100.00;101065.34;5047650;28;20049;-60
2021/05/02 01:45:30;;;;;;;38.67;22.23;;;;;;;2.41;100.00;101063.66;5041485;28;20341;-59
2021/05/02 01:48:00;;;;;;;45.17;23.55;;;;;;;2.20;100.00;101075.63;5046342;28;20049;-59
2021/05/02 01:50:27;;;;;;;43.28;22.95;;;;;;;2.26;100.00;101071.75;5045824;28;20037;-60
2021/05/02 01:52:54;;;;;;;42.92;22.45;;;;;;;2.55;100.00;101082.94;5042943;28;20052;-59
2021/05/02 01:55:23;;;;;;;44.85;23.75;;;;;;;2.73;100.00;101073.75;5041825;28;20045;-59
2021/05/02 01:57:51;;;;;;;44.03;21.80;;;;;;;2.84;100.00;101075.66;5041945;28;20041;-59
2021/05/02 02:00:39;;;;;;;41.30;22.80;;;;;;;3.00;100.00;101086.00;5039920;28;20213;-59
2021/05/02 02:03:07;;;;;;;42.55;22.98;;;;;;;3.02;100.00;101085.88;5044132;28;20047;-59
2021/05/02 02:05:36;;;;;;;43.08;22.83;;;;;;;3.06;100.00;101084.72;5042438;28;20696;-59
2021/05/02 02:08:03;;;;;;;40.63;21.52;;;;;;;3.07;100.00;101076.69;5043703;28;20365;-59
2021/05/02 02:10:32;;;;;;;36.33;21.08;;;;;;;3.14;100.00;101081.56;5046571;28;20040;-59
2021/05/02 02:13:08;;;;;;;39.08;21.52;;;;;;;3.14;100.00;101084.19;5037813;28;20071;-59
2021/05/02 02:15:35;;;;;;;36.38;20.73;;;;;;;3.06;100.00;101085.56;5049309;28;20049;-59
2021/05/02 02:18:02;;;;;;;35.35;20.20;;;;;;;3.06;100.00;101084.72;5048163;28;20037;-59
2021/05/02 02:20:30;;;;;;;40.15;21.23;;;;;;;2.99;100.00;101088.72;5049483;28;20043;-59
2021/05/02 02:22:59;;;;;;;42.17;22.83;;;;;;;3.10;100.00;101087.06;5047432;28;20041;-59
2021/05/02 02:25:28;;;;;;;42.28;22.85;;;;;;;2.98;100.00;101090.53;5054498;28;20037;-59
2021/05/02 02:27:57;;;;;;;43.35;22.13;;;;;;;3.19;100.00;101089.97;5051066;28;20037;-59
2021/05/02 02:30:27;;;;;;;39.03;19.90;;;;;;;3.36;100.00;101091.41;5045078;28;20053;-59
2021/05/02 02:32:55;;;;;;;40.17;22.42;;;;;;;3.10;100.00;101089.69;5049894;28;20049;-59
2021/05/02 02:35:25;;;;;;;42.28;24.35;;;;;;;3.01;100.00;101097.41;5047697;28;20453;-59
2021/05/02 02:37:55;;;;;;;40.22;22.15;;;;;;;2.98;100.00;101098.47;5050079;28;20041;-59
2021/05/02 02:40:23;;;;;;;46.15;23.60;;;;;;;3.08;100.00;101099.50;5049183;28;20436;-59
2021/05/02 02:42:51;;;;;;;40.35;23.50;;;;;;;3.28;100.00;101094.59;5050387;28;20042;-59
2021/05/02 02:45:19;;;;;;;44.13;23.30;;;;;;;3.55;100.00;101096.22;5053133;28;20037;-59
2021/05/02 02:47:49;;;;;;;41.75;21.95;;;;;;;3.68;100.00;101098.81;5044806;28;20334;-59
2021/05/02 02:50:21;;;;;;;42.17;23.55;;;;;;;3.52;100.00;101091.19;5047048;28;20326;-59
2021/05/02 02:52:50;;;;;;;39.55;22.80;;;;;;;3.48;100.00;101103.75;5048118;28;20448;-59
2021/05/02 02:55:18;;;;;;;38.88;21.92;;;;;;;3.44;100.00;101099.63;5050706;28;20044;-59
2021/05/02 02:57:54;;;;;;;42.67;23.05;;;;;;;3.61;100.00;101103.69;5046738;28;20056;-59
2021/05/02 03:00:22;;;;;;;38.28;22.13;;;;;;;3.70;100.00;101105.69;5054307;28;20341;-59
2021/05/02 03:02:51;;;;;;;37.75;20.48;;;;;;;3.97;100.00;101102.81;5049945;28;20349;-59
2021/05/02 03:05:21;;;;;;;39.63;21.67;;;;;;;4.06;100.00;101103.94;5048854;28;20041;-59
2021/05/02 03:07:48;;;;;;;37.30;22.55;;;;;;;3.90;100.00;101111.31;5048793;28;20045;-59
2021/05/02 03:10:16;;;;;;;40.50;21.05;;;;;;;3.81;100.00;101122.56;5050943;28;20037;-59
2021/05/02 03:12:44;;;;;;;34.67;19.45;;;;;;;3.81;100.00;101127.84;5046577;28;20037;-59
2021/05/02 03:15:12;;;;;;;33.25;19.65;;;;;;;3.57;100.00;101134.78;5046377;28;20336;-59
2021/05/02 03:17:41;;;;;;;31.40;18.50;;;;;;;3.45;100.00;101133.00;5047198;28;20055;-59
2021/05/02 03:20:12;;;;;;;36.85;19.38;;;;;;;3.32;100.00;101133.03;5045554;28;20041;-59
2021/05/02 03:22:42;;;;;;;40.83;22.40;;;;;;;3.31;100.00;101130.50;5051691;28;20045;-59
2021/05/02 03:25:14;;;;;;;36.75;20.02;;;;;;;3.44;100.00;101129.53;5045966;28;20394;-59
2021/05/02 03:27:53;;;;;;;41.38;21.45;;;;;;;3.48;100.00;101137.25;5047208;28;20052;-59
2021/05/02 03:30:22;;;;;;;35.50;20.90;;;;;;;3.66;100.00;101128.00;5043329;28;20041;-59
2021/05/02 03:32:50;;;;;;;33.70;19.45;;;;;;;3.69;100.00;101129.56;5042301;28;20618;-60
2021/05/02 03:35:19;;;;;;;36.88;20.55;;;;;;;3.50;100.00;101132.69;5051239;28;20036;-59
2021/05/02 03:37:49;;;;;;;34.17;19.70;;;;;;;3.54;100.00;101142.06;5044785;28;20340;-59
2021/05/02 03:40:17;;;;;;;34.97;19.60;;;;;;;3.47;100.00;101140.81;5048711;28;20049;-59
2021/05/02 03:42:44;;;;;;;39.42;20.38;;;;;;;3.65;100.00;101139.50;5049832;28;20045;-59
2021/05/02 03:45:11;;;;;;;38.47;20.25;;;;;;;3.47;100.00;101138.19;5047435;28;20040;-59
2021/05/02 03:47:38;;;;;;;34.92;19.52;;;;;;;3.44;100.00;101148.03;5047825;28;20053;-59
2021/05/02 03:50:06;;;;;;;33.33;19.85;;;;;;;3.41;100.00;101148.22;5050105;28;20051;-59
2021/05/02 03:52:34;;;;;;;35.03;20.33;;;;;;;3.42;100.00;101154.34;5044509;28;20044;-59
2021/05/02 03:55:01;;;;;;;38.13;19.90;;;;;;;3.31;100.00;101152.47;5046230;28;20045;-59
2021/05/02 03:57:28;;;;;;;36.03;18.90;;;;;;;3.25;100.00;101152.91;5039638;28;20060;-59
2021/05/02 03:59:54;;;;;;;38.10;21.20;;;;;;;3.12;100.00;101166.13;5045453;28;20049;-59
2021/05/02 04:02:21;;;;;;;35.67;20.60;;;;;;;3.30;100.00;101156.03;5046440;28;20433;-60
2021/05/02 04:04:49;;;;;;;31.38;19.38;;;;;;;3.24;100.00;101157.31;5048649;28;20052;-59
2021/05/02 04:07:15;;;;;;;32.35;19.13;;;;;;;3.33;100.00;101155.84;5046973;28;20332;-59
2021/05/02 04:09:45;;;;;;;35.97;19.08;;;;;;;3.40;100.00;101162.38;5047657;28;20064;-59
2021/05/02 04:12:13;;;;;;;33.25;18.90;;;;;;;3.38;100.00;101164.28;5044875;28;20046;-59
2021/05/02 04:14:41;;;;;;;38.03;20.67;;;;;;;3.43;100.00;101167.44;5043673;28;20041;-59
2021/05/02 04:17:09;;;;;;;34.17;18.52;;;;;;;3.38;100.00;101159.00;5047237;28;20068;-59
2021/05/02 04:19:38;;;;;;;40.20;20.52;;;;;;;3.22;100.00;101174.25;5047838;28;20128;-59
2021/05/02 04:22:07;;;;;;;35.47;18.67;;;;;;;3.32;100.00;101170.00;5047600;28;20049;-59
2021/05/02 04:24:34;;;;;;;35.85;19.05;;;;;;;3.35;100.00;101171.59;5046099;28;20068;-59
2021/05/02 04:27:02;;;;;;;41.05;21.80;;;;;;;3.19;100.00;101185.00;5038453;28;20049;-59
2021/05/02 04:29:31;;;;;;;40.13;22.42;;;;;;;3.30;100.00;101177.16;5043396;28;20127;-59
2021/05/02 04:31:59;;;;;;;32.95;19.42;;;;;;;3.28;100.00;101189.66;5045689;28;20037;-60
2021/05/02 04:34:26;;;;;;;36.17;19.83;;;;;;;3.23;100.00;101189.97;5048254;28;20052;-59
2021/05/02 04:36:55;;;;;;;33.72;18.77;;;;;;;3.25;100.00;101192.50;5046289;28;20404;-59
2021/05/02 04:39:22;;;;;;;38.33;20.77;;;;;;;3.31;100.00;101202.63;5039232;28;20056;-59
2021/05/02 04:41:50;;;;;;;39.22;18.42;;;;;;;3.17;100.00;101194.81;5043493;28;20072;-59
2021/05/02 04:44:20;;;;;;;30.25;17.98;;;;;;;3.39;100.00;101200.31;5041327;28;20048;-59
2021/05/02 04:46:47;;;;;;;32.88;19.33;;;;;;;3.40;100.00;101194.06;5045781;28;20082;-60
2021/05/02 04:49:14;;;;;;;37.15;18.80;;;;;;;3.47;100.00;101201.56;5043917;28;20124;-60
2021/05/02 04:51:42;;;;;;;31.25;18.45;;;;;;;3.53;100.00;101209.91;5044426;28;20333;-59
2021/05/02 04:54:09;;;;;;;30.17;16.83;;;;;;;3.58;100.00;101199.84;5050700;28;20329;-59
2021/05/02 04:56:36;;;;;;;29.50;17.15;;;;;;;3.65;100.00;101197.63;5046291;28;20040;-59
2021/05/02 04:59:04;;;;;;;30.58;16.73;;;;;;;3.69;100.00;101209.66;5045030;28;20045;-59
2021/05/02 05:01:32;;;;;;;27.95;15.52;;;;;;;3.73;100.00;101216.41;5047796;28;20045;-59
2021/05/02 05:03:59;;;;;;;27.27;15.38;;;;;;;3.75;100.00;101218.94;5042235;28;20053;-59
2021/05/02 05:06:26;;;;;;;30.98;17.17;;;;;;;3.25;100.00;101222.38;5046577;28;20391;-59
2021/05/02 05:08:53;;;;;;;31.10;16.90;;;;;;;3.44;100.00;101218.44;5040161;28;20045;-59
2021/05/02 05:11:20;;;;;;;28.30;16.75;;;;;;;3.61;100.00;101222.56;5046365;28;20041;-59
2021/05/02 05:13:48;;;;;;;27.90;15.02;;;;;;;3.93;100.00;101238.78;5046596;28;20040;-60
2021/05/02 05:16:14;;;;;;;30.33;16.30;;;;;;;4.33;100.00;101235.03;5046648;28;20051;-60
2021/05/02 05:18:42;;;;;;;27.08;15.13;;;;;;;4.31;100.00;101231.69;5045275;28;20352;-59
2021/05/02 05:21:11;;;;;;;25.00;15.35;;;;;;;4.61;100.00;101233.84;5042307;28;20073;-59
2021/05/02 05:23:38;;;;;;;22.90;15.38;;;;;;;4.87;100.00;101233.69;5050479;28;20049;-60
2021/05/02 05:26:05;;;;;;;28.25;16.15;;;;;;;5.20;100.00;101237.38;5042898;28;20051;-60
2021/05/02 05:28:32;;;;;;;28.13;15.15;;;;;;;5.18;100.00;101242.78;5044748;28;20056;-60
2021/05/02 05:30:59;;;;;;;23.75;15.25;;;;;;;5.71;100.00;101251.16;5043422;28;20029;-60
2021/05/02 05:33:29;;;;;;;25.33;14.57;;;;;;;5.03;100.00;101243.97;5043262;28;20059;-60
2021/05/02 05:35:57;;;;;;;22.92;13.38;;;;;;;5.43;100.00;101251.50;5045533;28;20044;-59
2021/05/02 05:38:24;;;;;;;21.48;13.52;;;;;;;6.02;100.00;101249.59;5044546;28;20064;-60
2021/05/02 05:40:51;;;;;;;29.45;14.52;;;;;;;6.19;100.00;101257.06;5042844;28;20052;-59
2021/05/02 05:43:18;;;;;;;26.08;14.43;;;;;;;5.97;100.00;101254.41;5043084;28;20053;-59
2021/05/02 05:45:45;;;;;;;22.60;14.10;;;;;;;5.92;100.00;101260.06;5042132;28;20125;-59
2021/05/02 05:48:12;;;;;;;22.70;14.25;;;;;;;6.66;100.00;101256.78;5046735;28;20090;-59
2021/05/02 05:50:41;;;;;;;24.05;14.48;;;;;;;6.27;100.00;101261.72;5043565;28;20041;-59
2021/05/02 05:53:08;;;;;;;19.35;12.73;;;;;;;6.82;100.00;101266.97;5044060;28;20377;-59
2021/05/02 05:55:35;;;;;;;18.35;12.38;;;;;;;7.38;100.00;101263.13;5042942;28;20045;-60
2021/05/02 05:58:02;;;;;;;22.05;13.45;;;;;;;7.57;100.00;101270.38;5046371;28;20344;-59
2021/05/02 06:00:29;;;;;;;18.63;12.40;;;;;;;7.67;100.00;101267.78;5043943;28;20045;-59
2021/05/02 06:02:56;;;;;;;18.95;13.27;;;;;;;7.73;100.00;101272.56;5045074;28;20349;-59
2021/05/02 06:05:23;;;;;;;19.20;12.82;;;;;;;7.96;100.00;101274.19;5031132;28;20048;-57
2021/05/02 06:07:50;;;;;;;20.05;13.27;;;;;;;7.91;100.00;101280.75;5037873;28;20049;-58
2021/05/02 06:10:18;;;;;;;20.42;13.18;;;;;;;7.28;100.00;101285.31;5041507;28;20044;-58
2021/05/02 06:12:45;;;;;;;22.17;13.05;;;;;;;6.95;100.00;101282.72;5039816;28;20041;-58
2021/05/02 06:15:13;;;;;;;20.23;13.88;;;;;;;6.69;100.00;101283.06;5042938;28;20068;-57
2021/05/02 06:17:41;;;;;;;21.48;14.30;;;;;;;6.99;100.00;101286.81;5041334;28;20044;-57
2021/05/02 06:20:09;;;;;;;22.83;13.73;;;;;;;6.30;100.00;101288.00;5040967;28;20376;-58
2021/05/02 06:22:36;;;;;;;26.52;15.20;;;;;;;7.77;100.00;101283.78;5045179;28;20045;-57
2021/05/02 06:25:06;;;;;;;26.02;13.90;;;;;;;7.23;100.00;101286.56;5047574;28;20045;-57
2021/05/02 06:27:34;;;;;;;24.42;14.02;;;;;;;7.21;100.00;101287.66;5040726;28;20049;-58
2021/05/02 06:30:01;;;;;;;22.83;13.00;;;;;;;6.97;100.00;101288.72;5042505;28;20207;-58
2021/05/02 06:32:28;;;;;;;22.95;14.30;;;;;;;7.19;100.00;101292.25;5040188;28;20044;-57
2021/05/02 06:34:56;;;;;;;24.25;13.15;;;;;;;7.59;100.00;101292.34;5043833;28;20045;-57
2021/05/02 06:37:23;;;;;;;19.92;11.85;;;;;;;7.24;100.00;101290.91;5045253;28;20052;-60
2021/05/02 06:39:50;;;;;;;19.48;11.13;;;;;;;7.54;100.00;101293.72;5043739;28;20053;-57
2021/05/02 06:42:18;;;;;;;20.30;10.85;;;;;;;7.74;100.00;101292.03;5049632;28;20041;-57
2021/05/02 06:44:45;;;;;;;21.90;12.57;;;;;;;7.02;100.00;101296.34;5041849;28;20064;-59
2021/05/02 06:47:12;;;;;;;19.88;11.60;;;;;;;7.24;100.00;101298.88;5041805;28;20037;-60
2021/05/02 06:49:40;;;;;;;13.98;8.95;;;;;;;7.20;100.00;101291.28;5042686;28;20041;-59
2021/05/02 06:52:07;;;;;;;20.25;11.40;;;;;;;7.34;100.00;101298.09;5045103;28;20033;-60
2021/05/02 06:54:34;;;;;;;21.40;11.45;;;;;;;7.88;100.00;101296.13;5043259;28;20051;-60
2021/05/02 06:57:01;;;;;;;15.40;9.80;;;;;;;8.01;100.00;101303.88;5044058;28;20064;-58
2021/05/02 06:59:28;;;;;;;17.95;9.85;;;;;;;8.08;100.00;101299.69;5042989;28;20429;-57
2021/05/02 07:01:56;;;;;;;13.82;8.00;;;;;;;8.52;100.00;101308.25;5042453;28;20053;-60
2021/05/02 07:04:23;;;;;;;14.95;8.93;;;;;;;8.30;100.00;101308.44;5047331;28;20124;-57
2021/05/02 07:06:50;;;;;;;20.48;10.00;;;;;;;7.95;100.00;101309.72;5047702;28;20044;-60
2021/05/02 07:09:17;;;;;;;21.65;10.10;;;;;;;7.50;100.00;101319.72;5045932;28;20041;-60
2021/05/02 07:11:44;;;;;;;16.88;9.70;;;;;;;8.78;100.00;101323.69;5048581;28;20049;-60
2021/05/02 07:14:10;;;;;;;12.57;6.90;;;;;;;8.44;100.00;101321.38;5045291;28;20041;-57
2021/05/02 07:16:37;;;;;;;10.38;7.13;;;;;;;8.39;100.00;101331.56;5046922;28;20046;-57
2021/05/02 07:19:05;;;;;;;11.57;7.35;;;;;;;8.17;100.00;101333.47;5041413;28;20045;-60
2021/05/02 07:21:32;;;;;;;12.95;6.93;;;;;;;8.06;100.00;101342.38;5044671;28;20044;-60
2021/05/02 07:23:59;;;;;;;11.23;7.15;;;;;;;8.68;100.00;101331.66;5049335;28;20067;-60
2021/05/02 07:26:26;;;;;;;12.02;6.75;;;;;;;9.36;100.00;101338.00;5046996;28;20336;-60
2021/05/02 07:28:53;;;;;;;14.65;6.68;;;;;;;9.71;100.00;101342.69;5047320;28;20075;-58
2021/05/02 07:31:20;;;;;;;9.40;6.57;;;;;;;8.94;100.00;101347.09;5043507;28;20093;-60
2021/05/02 07:33:47;;;;;;;11.70;6.88;;;;;;;9.40;100.00;101340.22;5045003;28;20045;-58
2021/05/02 07:36:15;;;;;;;9.57;5.38;;;;;;;8.91;100.00;101339.41;5047107;28;20056;-60
2021/05/02 07:38:43;;;;;;;13.13;6.60;;;;;;;8.79;100.00;101339.53;5043188;28;20049;-60
2021/05/02 07:41:10;;;;;;;9.13;5.68;;;;;;;9.00;100.00;101335.06;5047605;28;20045;-60
2021/05/02 07:43:39;;;;;;;8.05;4.93;;;;;;;8.74;100.00;101346.25;5045420;28;20037;-60
2021/05/02 07:46:06;;;;;;;10.10;5.32;;;;;;;8.58;100.00;101347.63;5045931;28;20053;-60
2021/05/02 07:48:34;;;;;;;6.97;4.78;;;;;;;9.55;100.00;101345.94;5041290;28;20044;-60
2021/05/02 07:51:02;;;;;;;7.75;4.53;;;;;;;9.92;100.00;101355.81;5045383;28;20041;-58
2021/05/02 07:53:29;;;;;;;9.18;4.68;;;;;;;9.77;100.00;101338.59;5043072;28;20052;-58
2021/05/02 07:55:56;;;;;;;10.57;6.18;;;;;;;9.84;100.00;101350.38;5040832;28;20433;-58
2021/05/02 07:58:23;;;;;;;9.43;4.93;;;;;;;10.12;100.00;101337.91;5042425;28;20056;-59
2021/05/02 08:00:50;;;;;;;6.80;4.47;;;;;;;10.44;100.00;101346.50;5041980;28;20380;-59
2021/05/02 08:03:17;;;;;;;11.57;5.18;;;;;;;9.15;100.00;101341.63;5044428;28;20052;-58
2021/05/02 08:05:44;;;;;;;11.35;4.45;;;;;;;10.18;100.00;101347.16;5044618;28;20467;-58
2021/05/02 08:08:11;;;;;;;6.90;3.95;;;;;;;9.83;100.00;101354.00;5043541;28;20072;-58
2021/05/02 08:10:39;;;;;;;7.65;3.50;;;;;;;10.87;100.00;101352.94;5040906;28;20456;-58
2021/05/02 08:13:06;;;;;;;7.05;3.33;;;;;;;9.98;100.00;101349.06;5042915;28;20041;-58
2021/05/02 08:15:33;;;;;;;10.57;3.45;;;;;;;11.76;100.00;101358.34;5042449;28;20433;-58
2021/05/02 08:18:01;;;;;;;7.75;4.45;;;;;;;9.93;100.00;101348.66;5044391;28;20053;-59
2021/05/02 08:20:28;;;;;;;6.72;3.50;;;;;;;12.80;100.00;101345.72;5045464;28;20048;-58
2021/05/02 08:22:55;;;;;;;4.78;3.33;;;;;;;11.00;100.00;101355.22;5042155;28;20044;-58
2021/05/02 08:25:22;;;;;;;13.05;4.55;;;;;;;9.20;100.00;101343.88;5038569;28;20044;-58
2021/05/02 08:27:50;;;;;;;10.32;4.55;;;;;;;9.93;100.00;101352.16;5039468;28;20517;-58
2021/05/02 08:30:17;;;;;;;5.63;4.32;;;;;;;9.53;100.00;101350.59;5043467;28;20059;-58
2021/05/02 08:32:44;;;;;;;9.15;3.72;;;;;;;9.51;100.00;101354.38;5042329;28;20127;-58
2021/05/02 08:35:12;;;;;;;4.63;3.30;;;;;;;8.84;100.00;101359.59;5045473;28;20456;-58
2021/05/02 08:37:39;;;;;;;6.75;4.03;;;;;;;8.59;100.00;101359.97;5037237;28;20052;-58
2021/05/02 08:40:08;;;;;;;7.25;3.38;;;;;;;8.24;100.00;101361.22;5042086;28;20049;-60
2021/05/02 08:42:35;;;;;;;9.18;3.38;;;;;;;7.73;100.00;101373.56;5043476;28;20059;-60
2021/05/02 08:45:05;;;;;;;9.32;3.90;;;;;;;7.69;100.00;101366.84;5036552;28;20052;-58
2021/05/02 08:47:35;;;;;;;4.20;3.40;;;;;;;8.01;100.00;101363.25;5043933;28;20144;-59
2021/05/02 08:50:05;;;;;;;8.77;2.78;;;;;;;10.49;100.00;101366.41;5043346;28;20040;-58
2021/05/02 08:52:32;;;;;;;6.57;3.10;;;;;;;10.77;100.00;101362.88;5039787;28;20041;-58
2021/05/02 08:54:59;;;;;;;5.60;2.97;;;;;;;10.70;100.00;101367.13;5043095;28;20053;-58
2021/05/02 08:57:26;;;;;;;5.38;2.50;;;;;;;11.09;100.00;101356.16;5035890;28;20399;-58
2021/05/02 08:59:53;;;;;;;6.68;2.45;;;;;;;11.33;100.00;101361.72;5037799;28;20322;-58
2021/05/02 09:02:25;;;;;;;4.07;2.60;;;;;;;10.94;100.00;101364.69;5041285;28;20046;-58
2021/05/02 09:04:54;;;;;;;5.72;3.00;;;;;;;11.26;100.00;101363.31;5038664;28;20045;-58
2021/05/02 09:07:21;;;;;;;5.93;2.28;;;;;;;10.14;100.00;101361.78;5040987;28;20108;-58
2021/05/02 09:09:48;;;;;;;4.93;2.50;;;;;;;10.30;100.00;101367.31;5041528;28;20037;-59
2021/05/02 09:12:22;;;;;;;3.78;2.20;;;;;;;9.44;100.00;101365.63;5034747;28;20053;-58
2021/05/02 09:14:49;;;;;;;4.95;2.50;;;;;;;8.84;100.00;101367.56;5039416;28;20432;-58
2021/05/02 09:17:21;;;;;;;7.88;2.60;;;;;;;9.44;100.00;101367.41;5041451;28;20052;-58
2021/05/02 09:19:50;;;;;;;6.60;3.00;;;;;;;9.25;100.00;101363.78;5039634;28;20068;-58
2021/05/02 09:22:19;;;;;;;6.13;3.33;;;;;;;8.36;100.00;101369.09;5041270;28;20041;-58
2021/05/02 09:24:59;;;;;;;5.97;3.20;;;;;;;10.45;100.00;101365.03;5038048;28;20075;-58
2021/05/02 09:27:26;;;;;;;7.18;2.75;;;;;;;11.48;100.00;101359.34;5034321;28;20091;-59
2021/05/02 09:29:54;;;;;;;4.43;2.67;;;;;;;12.77;100.00;101356.78;5037895;28;20077;-59
2021/05/02 09:32:39;;;;;;;4.20;2.55;;;;;;;13.21;100.00;101356.47;5038125;28;20048;-59
2021/05/02 09:35:09;;;;;;;3.23;2.07;;;;;;;12.49;100.00;101354.34;5041489;28;20350;-60
2021/05/02 09:37:36;;;;;;;5.55;2.10;;;;;;;12.01;100.00;101360.19;5036103;28;20040;-59
2021/05/02 09:40:04;;;;;;;6.45;2.33;;;;;;;11.42;100.00;101364.47;5042784;28;20045;-58
2021/05/02 09:42:34;;;;;;;3.53;2.53;;;;;;;11.94;100.00;101364.50;5037757;28;20037;-59
2021/05/02 09:45:03;;;;;;;3.67;2.17;;;;;;;12.64;100.00;101365.28;5038901;28;20037;-59
2021/05/02 09:47:32;;;;;;;5.28;2.53;;;;;;;13.07;100.00;101358.00;5038283;28;20846;-59
2021/05/02 09:50:18;;;;;;;3.75;2.50;;;;;;;11.41;100.00;101362.78;5043027;28;20323;-59
2021/05/02 09:52:48;;;;;;;5.45;2.53;;;;;;;9.75;100.00;101352.09;5037543;28;20041;-58
2021/05/02 09:55:30;;;;;;;5.00;2.72;;;;;;;9.52;100.00;101364.06;5045269;28;20467;-58
2021/05/02 09:58:06;;;;;;;9.30;3.55;;;;;;;8.93;100.00;101374.72;5040630;28;20360;-58
2021/05/02 10:00:37;;;;;;;;;;;;;;;8.64;100.00;101383.50;5043752;28;20052;-58
2021/05/02 10:03:08;;;;;;;5.50;3.03;;;;;;;8.21;100.00;101382.78;5042147;28;20242;-58
2021/05/02 10:05:51;;;;;;;5.45;2.72;;;;;;;8.26;100.00;101385.91;5043686;28;20325;-58
2021/05/02 10:08:19;;;;;;;6.70;3.00;;;;;;;8.70;100.00;101377.63;5040574;28;20041;-59
2021/05/02 10:10:46;;;;;;;4.35;2.90;;;;;;;10.78;100.00;101385.91;5043918;28;20048;-58
2021/05/02 10:13:13;;;;;;;4.82;2.58;;;;;;;11.77;100.00;101376.91;5037489;28;20417;-58
2021/05/02 10:15:40;;;;;;;5.35;2.70;;;;;;;12.36;100.00;101371.72;5043039;28;20064;-59
2021/05/02 10:18:07;;;;;;;5.95;2.60;;;;;;;12.74;100.00;101374.88;5037181;28;20044;-59
2021/05/02 10:20:33;;;;;;;7.20;2.45;;;;;;;13.48;100.00;101373.28;5043611;28;20060;-59
2021/05/02 10:23:03;;;;;;;5.28;3.05;;;;;;;12.11;100.00;101368.09;5041993;28;20120;-59
2021/05/02 10:25:30;;;;;;;2.88;1.83;;;;;;;13.10;100.00;101365.72;5039781;28;20042;-58
2021/05/02 10:27:57;;;;;;;3.60;1.90;;;;;;;12.29;100.00;101372.53;5039383;28;20045;-58
2021/05/02 10:30:28;;;;;;;3.83;2.00;;;;;;;10.99;100.00;101375.78;5039536;28;20332;-58
2021/05/02 10:33:02;;;;;;;4.82;2.42;;;;;;;10.65;100.00;101364.91;5041447;28;20064;-58
2021/05/02 10:35:46;;;;;;;3.95;2.15;;;;;;;9.97;100.00;101369.56;5041312;28;20045;-60
2021/05/02 10:38:15;;;;;;;3.58;2.33;;;;;;;9.24;100.00;101371.94;5038936;28;20041;-59
2021/05/02 10:40:44;;;;;;;4.72;2.30;;;;;;;9.63;100.00;101375.41;5044282;28;20060;-60
2021/05/02 10:43:26;;;;;;;2.80;2.10;;;;;;;9.29;100.00;101370.53;5042865;28;20037;-60
2021/05/02 10:45:54;;;;;;;4.65;2.50;;;;;;;10.15;100.00;101374.16;5046215;28;20049;-57
2021/05/02 10:48:49;;;;;;;4.60;2.13;;;;;;;11.14;100.00;101370.75;5045408;28;20127;-58
2021/05/02 10:51:28;;;;;;;4.68;2.47;;;;;;;11.92;100.00;101382.50;5041320;28;20045;-58
2021/05/02 10:54:14;;;;;;;6.72;2.17;;;;;;;13.03;96.97;101357.50;5045570;28;20037;-58
2021/05/02 10:56:46;;;;;;;3.10;2.22;;;;;;;12.21;100.00;101362.63;5040336;28;20060;-58
2021/05/02 10:59:13;;;;;;;3.67;2.47;;;;;;;12.33;100.00;101364.03;5040600;28;20052;-58
2021/05/02 11:01:40;;;;;;;4.00;2.50;;;;;;;11.15;100.00;101356.38;5041945;28;20045;-58
2021/05/02 11:04:07;;;;;;;3.50;2.20;;;;;;;10.89;100.00;101359.00;5041105;28;20124;-58
2021/05/02 11:06:53;;;;;;;3.65;2.72;;;;;;;10.40;100.00;101361.94;5043307;28;20041;-57
2021/05/02 11:09:29;;;;;;;4.30;2.47;;;;;;;10.89;100.00;101352.78;5039197;28;20044;-60
2021/05/02 11:11:58;;;;;;;4.32;2.90;;;;;;;10.51;100.00;101368.94;5041557;28;20281;-57
2021/05/02 11:14:32;;;;;;;4.60;2.90;;;;;;;11.37;100.00;101365.75;5042024;28;20044;-58
2021/05/02 11:17:31;;;;;;;7.28;2.75;;;;;;;11.00;100.00;101364.09;5042398;28;20038;-58
2021/05/02 11:19:59;;;;;;;4.95;2.88;;;;;;;11.84;100.00;101364.56;5043084;28;20064;-58
2021/05/02 11:22:27;;;;;;;3.40;2.50;;;;;;;12.90;100.00;101362.50;5044704;28;20325;-58